Time;durP1;ratioP1;P1;durP2;ratioP2;P2;SDS_P1;SDS_P2;PMS_P1;PMS_P2;Temp;Humidity;BMP_temperature;BMP_pressure;BME280_temperature;BME280_humidity;BME280_pressure;Samples;Min_cycle;Max_cycle;Signal;HPM_P1;HPM_P2
2023/12/23 00:01:13;;;;;;;3.85;1.40;;;;;;;3.81;89.23;93255.47;5049414;28;20222;-76
2023/12/23 00:03:41;;;;;;;6.30;1.77;;;;;;;3.90;89.36;93254.34;5050151;28;20204;-78
2023/12/23 00:06:08;;;;;;;0.40;0.40;;;;;;;3.82;88.96;93246.34;5053050;28;20211;-75
2023/12/23 00:08:35;;;;;;;0.20;0.20;;;;;;;3.76;90.12;93236.91;5050887;28;20204;-76
2023/12/23 00:11:02;;;;;;;0.35;0.35;;;;;;;3.88;89.09;93223.63;5052961;28;20199;-77
2023/12/23 00:13:28;;;;;;;0.30;0.30;;;;;;;3.73;89.58;93210.75;5052844;28;20203;-77
2023/12/23 00:15:55;;;;;;;0.68;0.68;;;;;;;3.67;89.82;93217.41;5052914;28;20590;-76
2023/12/23 00:18:22;;;;;;;0.22;0.22;;;;;;;3.56;90.36;93195.50;5052498;28;20223;-78
2023/12/23 00:20:50;;;;;;;0.20;0.20;;;;;;;3.50;91.08;93202.16;5052501;28;20200;-76
2023/12/23 00:23:17;;;;;;;0.45;0.45;;;;;;;3.55;91.03;93194.72;5052590;28;20656;-76
2023/12/23 00:25:44;;;;;;;0.20;0.20;;;;;;;3.52;91.36;93186.56;5053338;28;20607;-75
2023/12/23 00:28:11;;;;;;;0.20;0.20;;;;;;;3.54;91.19;93182.47;5052804;28;20634;-76
2023/12/23 00:30:37;;;;;;;0.20;0.20;;;;;;;3.29;91.60;93185.97;5052345;28;20239;-76
2023/12/23 00:33:05;;;;;;;2.50;1.25;;;;;;;3.29;92.95;93207.38;5052734;28;20208;-76
2023/12/23 00:35:33;;;;;;;0.30;0.30;;;;;;;3.37;93.34;93209.25;5052499;28;20665;-82
2023/12/23 00:38:01;;;;;;;0.20;0.20;;;;;;;3.57;92.42;93208.59;5052953;28;20295;-82
2023/12/23 00:40:28;;;;;;;0.20;0.20;;;;;;;3.62;91.98;93204.97;5049433;28;20212;-79
2023/12/23 00:42:55;;;;;;;0.52;0.52;;;;;;;3.37;91.71;93208.47;5053019;28;20211;-80
2023/12/23 00:45:22;;;;;;;0.20;0.20;;;;;;;3.62;92.39;93230.94;5052868;28;20548;-80
2023/12/23 00:47:49;;;;;;;0.40;0.40;;;;;;;3.56;91.43;93201.66;5052616;28;20694;-81
2023/12/23 00:50:16;;;;;;;0.43;0.43;;;;;;;3.31;91.98;93178.41;5051742;28;20211;-80
2023/12/23 00:52:43;;;;;;;0.20;0.20;;;;;;;3.27;92.97;93182.84;5052984;28;20215;-82
2023/12/23 00:55:11;;;;;;;0.20;0.20;;;;;;;3.52;92.33;93195.38;5052408;28;20224;-81
2023/12/23 00:57:38;;;;;;;0.20;0.20;;;;;;;3.45;91.58;93192.41;5052532;28;20227;-83
2023/12/23 01:00:06;;;;;;;0.20;0.20;;;;;;;3.34;92.62;93188.47;5052300;28;20206;-81
2023/12/23 01:02:33;;;;;;;0.20;0.20;;;;;;;3.28;92.72;93181.72;5052080;28;20543;-81
2023/12/23 01:05:02;;;;;;;0.20;0.20;;;;;;;3.35;93.03;93179.34;5052518;28;20200;-81
2023/12/23 01:07:29;;;;;;;0.30;0.30;;;;;;;3.36;93.26;93174.78;5052099;28;20333;-80
2023/12/23 01:09:57;;;;;;;0.20;0.20;;;;;;;3.51;92.33;93175.06;5050735;28;20207;-81
2023/12/23 01:12:25;;;;;;;0.20;0.20;;;;;;;3.61;91.63;93159.75;5052099;28;20239;-82
2023/12/23 01:14:53;;;;;;;0.20;0.20;;;;;;;3.48;91.53;93164.22;5051326;28;20292;-81
2023/12/23 01:17:19;;;;;;;0.77;0.32;;;;;;;3.61;92.33;93178.50;5052148;28;20196;-81
2023/12/23 01:19:46;;;;;;;0.20;0.20;;;;;;;3.71;91.04;93162.09;5052024;28;20234;-81
2023/12/23 01:22:13;;;;;;;0.20;0.20;;;;;;;3.63;91.04;93136.94;5033798;28;20192;-79
2023/12/23 01:24:40;;;;;;;0.20;0.20;;;;;;;3.69;92.76;93143.66;5051743;28;20199;-81
2023/12/23 01:27:07;;;;;;;0.20;0.20;;;;;;;3.66;92.33;93127.47;5052112;28;20195;-80
2023/12/23 01:29:35;;;;;;;0.32;0.32;;;;;;;3.62;92.06;93143.38;5051054;28;20222;-76
2023/12/23 01:32:02;;;;;;;0.20;0.20;;;;;;;3.56;90.89;93113.31;5051263;28;20239;-80
2023/12/23 01:34:29;;;;;;;0.20;0.20;;;;;;;3.61;91.28;93111.56;5050603;28;20200;-80
2023/12/23 01:36:56;;;;;;;0.20;0.20;;;;;;;3.51;90.89;93070.69;5052719;28;20223;-79
2023/12/23 01:39:22;;;;;;;0.20;0.20;;;;;;;3.58;91.34;93104.97;5051608;28;20207;-81
2023/12/23 01:41:50;;;;;;;0.20;0.20;;;;;;;3.49;90.75;93115.72;5051535;28;20303;-80
2023/12/23 01:44:17;;;;;;;0.28;0.28;;;;;;;3.41;91.21;93092.47;5048715;28;20208;-81
2023/12/23 01:46:46;;;;;;;0.52;0.52;;;;;;;3.13;92.88;93027.88;5052332;28;20204;-81
2023/12/23 01:49:14;;;;;;;0.20;0.20;;;;;;;3.22;93.19;93090.16;5051371;28;20233;-80
2023/12/23 01:51:41;;;;;;;0.20;0.20;;;;;;;3.37;93.79;93094.19;5051536;28;20203;-80
2023/12/23 01:54:08;;;;;;;0.60;0.60;;;;;;;3.38;92.77;93010.13;5051188;28;20545;-80
2023/12/23 01:56:35;;;;;;;0.20;0.20;;;;;;;3.47;91.46;93077.00;5051073;28;20223;-79
2023/12/23 01:59:03;;;;;;;0.20;0.20;;;;;;;3.58;91.96;93079.00;5051555;28;20321;-80
2023/12/23 02:01:32;;;;;;;0.30;0.30;;;;;;;3.62;92.09;93099.75;5051237;28;20655;-81
2023/12/23 02:04:00;;;;;;;1.35;1.25;;;;;;;3.64;91.72;93057.41;5048726;28;20196;-80
2023/12/23 02:06:27;;;;;;;0.20;0.20;;;;;;;3.70;90.99;93058.78;5050967;28;20208;-80
2023/12/23 02:08:54;;;;;;;0.60;0.60;;;;;;;4.00;89.41;93081.78;5051096;28;20531;-80
2023/12/23 02:11:29;;;;;;;0.20;0.20;;;;;;;3.81;89.48;93041.25;5050906;28;20223;-81
2023/12/23 02:14:05;;;;;;;0.20;0.20;;;;;;;3.82;90.22;93053.53;5051121;28;20233;-80
2023/12/23 02:16:32;;;;;;;0.20;0.20;;;;;;;3.73;89.71;93039.38;5050907;28;20588;-81
2023/12/23 02:19:01;;;;;;;0.20;0.20;;;;;;;3.89;88.68;93080.56;5048305;28;20204;-81
2023/12/23 02:21:29;;;;;;;0.40;0.40;;;;;;;4.00;88.64;93076.41;5050490;28;20655;-79
2023/12/23 02:23:56;;;;;;;0.47;0.30;;;;;;;4.05;87.30;93046.75;5050511;28;20227;-76
2023/12/23 02:26:26;;;;;;;0.30;0.30;;;;;;;4.08;87.82;93067.56;5050208;28;20204;-77
2023/12/23 02:28:53;;;;;;;0.30;0.30;;;;;;;3.91;89.25;93092.53;5050451;28;20200;-77
2023/12/23 02:31:21;;;;;;;0.20;0.20;;;;;;;3.53;92.55;93084.53;5047350;28;20263;-75
2023/12/23 02:33:48;;;;;;;0.20;0.20;;;;;;;3.35;93.04;93050.13;5050639;28;20210;-78
2023/12/23 02:36:20;;;;;;;2.20;1.23;;;;;;;3.14;94.25;93056.16;5049932;28;20323;-77
2023/12/23 02:38:48;;;;;;;1.15;0.85;;;;;;;3.06;95.28;93077.59;5050699;28;20203;-76
2023/12/23 02:41:15;;;;;;;1.10;1.00;;;;;;;2.89;95.90;92994.75;5049878;28;20212;-76
2023/12/23 02:43:42;;;;;;;0.68;0.68;;;;;;;2.98;96.30;93065.03;5050146;28;20203;-76
2023/12/23 02:46:09;;;;;;;1.23;0.63;;;;;;;3.00;96.41;93070.88;5048815;28;20204;-76
2023/12/23 02:48:35;;;;;;;0.55;0.55;;;;;;;2.77;97.21;93030.94;5050285;28;20208;-76
2023/12/23 02:51:02;;;;;;;1.35;0.63;;;;;;;2.77;97.71;93040.84;5049706;28;20614;-75
2023/12/23 02:53:29;;;;;;;0.70;0.70;;;;;;;2.70;98.39;93014.63;5049312;28;20656;-77
2023/12/23 02:55:57;;;;;;;2.88;1.15;;;;;;;2.65;99.09;93032.69;5049522;28;20239;-75
2023/12/23 02:58:24;;;;;;;1.27;0.90;;;;;;;2.65;99.31;93036.16;5049828;28;20691;-76
2023/12/23 03:00:51;;;;;;;1.20;0.90;;;;;;;2.71;99.49;93031.44;5047001;28;20204;-76
2023/12/23 03:03:18;;;;;;;0.45;0.45;;;;;;;2.68;99.76;93006.13;5048947;28;20204;-75
2023/12/23 03:05:45;;;;;;;2.15;0.93;;;;;;;2.76;99.53;93077.50;5049466;28;20250;-76
2023/12/23 03:08:12;;;;;;;1.23;1.08;;;;;;;2.66;99.64;93067.13;5049768;28;20340;-76
2023/12/23 03:10:38;;;;;;;0.73;0.57;;;;;;;2.62;99.65;93071.53;5049435;28;20667;-76
2023/12/23 03:13:07;;;;;;;1.27;0.98;;;;;;;2.69;100.00;93066.50;5048216;28;20214;-76
2023/12/23 03:15:34;;;;;;;0.93;0.93;;;;;;;2.57;99.83;93058.34;5049235;28;21049;-78
2023/12/23 03:18:00;;;;;;;0.57;0.40;;;;;;;2.70;99.66;93073.44;5049383;28;20570;-75
2023/12/23 03:20:28;;;;;;;1.63;1.00;;;;;;;2.73;99.76;93067.44;5049450;28;20211;-75
2023/12/23 03:22:55;;;;;;;1.17;0.68;;;;;;;2.87;99.03;93085.22;5049511;28;20294;-77
2023/12/23 03:25:22;;;;;;;1.17;1.00;;;;;;;2.81;98.59;93063.97;5048787;28;20211;-77
2023/12/23 03:27:48;;;;;;;0.20;0.20;;;;;;;2.76;98.54;93060.66;5049499;28;20215;-77
2023/12/23 03:30:17;;;;;;;0.20;0.20;;;;;;;3.00;99.40;93050.25;5048975;28;20219;-76
2023/12/23 03:32:44;;;;;;;0.20;0.20;;;;;;;2.99;98.43;93074.63;5048317;28;20612;-77
2023/12/23 03:35:10;;;;;;;0.20;0.20;;;;;;;2.87;98.38;93077.19;5049538;28;20203;-77
2023/12/23 03:37:37;;;;;;;0.20;0.20;;;;;;;2.85;98.61;93051.56;5049942;28;20231;-75
2023/12/23 03:40:07;;;;;;;0.20;0.20;;;;;;;2.75;98.58;93059.88;5053292;28;20520;-77
2023/12/23 03:42:33;;;;;;;0.20;0.20;;;;;;;2.78;98.83;93035.19;5055803;28;20294;-74
2023/12/23 03:45:00;;;;;;;0.20;0.20;;;;;;;2.84;98.79;93052.66;5055857;28;20236;-75
2023/12/23 03:47:28;;;;;;;0.60;0.60;;;;;;;2.78;98.33;93021.81;5055306;28;20341;-75
2023/12/23 03:49:56;;;;;;;0.20;0.20;;;;;;;2.83;98.34;93045.72;5054468;28;20203;-76
2023/12/23 03:52:23;;;;;;;0.40;0.40;;;;;;;2.75;98.52;93048.41;5055806;28;20242;-79
2023/12/23 03:54:50;;;;;;;0.20;0.20;;;;;;;2.73;98.27;93046.03;5055923;28;20287;-77
2023/12/23 03:57:16;;;;;;;0.20;0.20;;;;;;;2.73;98.24;93030.00;5055754;28;20229;-79
2023/12/23 03:59:43;;;;;;;0.70;0.60;;;;;;;2.76;98.58;93016.00;5056118;28;20651;-79
2023/12/23 04:02:10;;;;;;;1.65;0.60;;;;;;;2.73;98.65;93053.31;5055875;28;20290;-79
2023/12/23 04:04:39;;;;;;;0.88;0.50;;;;;;;2.72;98.66;93004.41;5055380;28;20195;-78
2023/12/23 04:07:06;;;;;;;0.20;0.20;;;;;;;2.81;98.16;93010.50;5053201;28;20215;-80
2023/12/23 04:09:33;;;;;;;0.30;0.30;;;;;;;2.93;97.41;92990.34;5055476;28;20268;-81
2023/12/23 04:12:00;;;;;;;0.30;0.30;;;;;;;2.97;96.75;92976.00;5056232;28;20211;-78
2023/12/23 04:14:28;;;;;;;1.45;1.00;;;;;;;3.06;96.63;93016.09;5056011;28;20620;-79
2023/12/23 04:16:55;;;;;;;0.20;0.20;;;;;;;3.02;96.41;92994.53;5055939;28;20236;-79
2023/12/23 04:19:21;;;;;;;0.20;0.20;;;;;;;2.93;96.79;93017.06;5056177;28;20215;-79
2023/12/23 04:21:50;;;;;;;0.20;0.20;;;;;;;2.91;96.26;92982.63;5055572;28;20206;-79
2023/12/23 04:24:19;;;;;;;0.20;0.20;;;;;;;3.00;97.03;93049.47;5056065;28;20204;-78
2023/12/23 04:26:46;;;;;;;0.30;0.30;;;;;;;3.01;97.01;93067.06;5053129;28;20556;-80
2023/12/23 04:29:13;;;;;;;0.28;0.28;;;;;;;2.92;97.18;93063.63;5055822;28;20211;-80
2023/12/23 04:31:41;;;;;;;1.17;1.08;;;;;;;2.92;96.65;93050.25;5054807;28;20240;-80
2023/12/23 04:34:10;;;;;;;0.20;0.20;;;;;;;2.96;96.65;93032.47;5053658;28;20599;-79
2023/12/23 04:36:37;;;;;;;0.52;0.52;;;;;;;3.04;96.00;93007.59;5055521;28;20231;-80
2023/12/23 04:39:06;;;;;;;0.20;0.20;;;;;;;3.15;95.48;93014.94;5055910;28;20196;-79
2023/12/23 04:41:33;;;;;;;0.20;0.20;;;;;;;3.19;94.30;93001.72;5055155;28;20265;-79
2023/12/23 04:43:59;;;;;;;0.20;0.20;;;;;;;3.12;94.90;92982.72;5055758;28;20204;-80
2023/12/23 04:46:26;;;;;;;0.20;0.20;;;;;;;3.24;95.69;93030.19;5055654;28;20199;-80
2023/12/23 04:48:53;;;;;;;2.10;1.95;;;;;;;3.21;95.09;93028.94;5055769;28;20227;-80
2023/12/23 04:51:20;;;;;;;0.20;0.20;;;;;;;3.27;94.45;93037.59;5052322;28;20565;-79
2023/12/23 04:53:47;;;;;;;0.20;0.20;;;;;;;3.16;94.90;93007.69;5052087;28;20207;-80
2023/12/23 04:56:15;;;;;;;0.20;0.20;;;;;;;3.07;95.44;93001.59;5052354;28;20196;-78
2023/12/23 04:58:42;;;;;;;0.20;0.20;;;;;;;3.03;95.93;93027.41;5052748;28;20693;-77
2023/12/23 05:01:09;;;;;;;0.20;0.20;;;;;;;2.89;96.22;93026.81;5049695;28;20219;-78
2023/12/23 05:03:36;;;;;;;0.20;0.20;;;;;;;3.01;96.00;93057.16;5051702;28;20200;-79
2023/12/23 05:06:03;;;;;;;0.20;0.20;;;;;;;3.12;95.74;93047.69;5052232;28;20554;-78
2023/12/23 05:08:30;;;;;;;0.20;0.20;;;;;;;3.22;95.29;93121.47;5051635;28;20273;-77
2023/12/23 05:10:57;;;;;;;0.20;0.20;;;;;;;3.35;94.90;93101.75;5051699;28;20208;-78
2023/12/23 05:13:25;;;;;;;2.28;1.77;;;;;;;3.39;94.95;93136.69;5051250;28;20212;-78
2023/12/23 05:15:52;;;;;;;0.20;0.20;;;;;;;3.35;93.58;93066.97;5051825;28;20668;-78
2023/12/23 05:18:18;;;;;;;0.20;0.20;;;;;;;3.29;94.93;93116.41;5051736;28;20235;-77
2023/12/23 05:20:45;;;;;;;0.20;0.20;;;;;;;3.32;93.82;93080.97;5051633;28;20206;-76
2023/12/23 05:23:12;;;;;;;0.30;0.30;;;;;;;3.49;92.42;93051.47;5051692;28;20207;-76
2023/12/23 05:25:39;;;;;;;0.20;0.20;;;;;;;3.64;91.93;93101.03;5051671;28;20218;-75
2023/12/23 05:28:06;;;;;;;0.15;0.15;;;;;;;3.66;91.19;93071.25;5051140;28;20207;-76
2023/12/23 05:30:35;;;;;;;0.20;0.20;;;;;;;3.68;91.53;93107.31;5051004;28;20319;-76
2023/12/23 05:33:01;;;;;;;0.20;0.20;;;;;;;3.58;91.88;93118.34;5051633;28;20237;-76
2023/12/23 05:35:28;;;;;;;0.20;0.20;;;;;;;3.63;91.16;93087.94;5051237;28;20200;-77
2023/12/23 05:37:55;;;;;;;0.20;0.20;;;;;;;3.73;91.08;93084.91;5051266;28;20536;-75
2023/12/23 05:40:22;;;;;;;0.20;0.20;;;;;;;3.83;90.44;93081.84;5051475;28;20559;-77
2023/12/23 05:42:49;;;;;;;0.20;0.20;;;;;;;3.84;89.63;93100.28;5051447;28;20203;-77
2023/12/23 05:45:16;;;;;;;0.22;0.22;;;;;;;3.88;89.32;93068.28;5051791;28;20206;-77
2023/12/23 05:47:44;;;;;;;0.20;0.20;;;;;;;3.98;89.05;93078.63;5047962;28;20204;-78
2023/12/23 05:50:12;;;;;;;0.20;0.20;;;;;;;4.02;88.13;93042.06;5048689;28;20356;-78
2023/12/23 05:52:38;;;;;;;0.60;0.60;;;;;;;4.02;87.88;93068.84;5051471;28;20204;-78
2023/12/23 05:55:06;;;;;;;0.20;0.20;;;;;;;3.87;88.90;93098.84;5051489;28;20196;-77
2023/12/23 05:57:33;;;;;;;0.20;0.20;;;;;;;3.88;89.38;93062.94;5048516;28;20587;-77
2023/12/23 06:00:00;;;;;;;0.20;0.20;;;;;;;3.89;88.68;93104.69;5050881;28;20204;-77
2023/12/23 06:02:28;;;;;;;0.30;0.30;;;;;;;4.03;87.70;93099.88;5047115;28;20261;-77
2023/12/23 06:04:56;;;;;;;0.20;0.20;;;;;;;4.33;86.72;93116.72;5047514;28;20204;-80
2023/12/23 06:07:23;;;;;;;0.20;0.20;;;;;;;4.38;86.81;93102.31;5042322;28;20203;-79
2023/12/23 06:09:50;;;;;;;0.20;0.20;;;;;;;4.39;86.15;93093.19;5044086;28;20204;-80
2023/12/23 06:12:17;;;;;;;0.20;0.20;;;;;;;4.33;86.14;93099.84;5043939;28;20204;-80
2023/12/23 06:14:45;;;;;;;0.20;0.20;;;;;;;4.49;85.63;93124.97;5044085;28;20204;-81
2023/12/23 06:17:12;;;;;;;0.52;0.52;;;;;;;4.86;87.60;93107.16;5043820;28;20306;-78
2023/12/23 06:19:42;;;;;;;0.20;0.20;;;;;;;5.22;84.03;93101.13;5037865;28;20201;-79
2023/12/23 06:22:10;;;;;;;0.30;0.30;;;;;;;5.07;83.72;93107.13;5045082;28;20204;-79
2023/12/23 06:24:37;;;;;;;0.20;0.20;;;;;;;4.75;84.12;93130.94;5048677;28;20647;-81
2023/12/23 06:27:04;;;;;;;0.40;0.30;;;;;;;4.67;84.17;93107.63;5052352;28;20210;-80
2023/12/23 06:29:31;;;;;;;0.30;0.30;;;;;;;4.59;84.77;93127.25;5048024;28;20210;-82
2023/12/23 06:31:59;;;;;;;0.20;0.20;;;;;;;4.70;84.34;93125.75;5050086;28;20598;-82
2023/12/23 06:34:26;;;;;;;0.20;0.20;;;;;;;4.63;84.30;93109.41;5048917;28;20208;-82
2023/12/23 06:36:53;;;;;;;0.30;0.30;;;;;;;5.52;80.62;93102.56;5047627;28;20223;-81
2023/12/23 06:39:24;;;;;;;0.20;0.20;;;;;;;5.45;80.98;93105.03;5051324;28;20200;-82
2023/12/23 06:41:51;;;;;;;0.20;0.20;;;;;;;7.01;73.84;93096.38;5052206;28;20222;-79
2023/12/23 06:44:18;;;;;;;0.20;0.20;;;;;;;7.20;73.12;93076.13;5045153;28;20205;-83
2023/12/23 06:46:46;;;;;;;0.20;0.20;;;;;;;8.25;68.61;93034.03;5053389;28;20654;-81
2023/12/23 06:49:13;;;;;;;0.20;0.20;;;;;;;8.89;66.30;93054.28;5048030;28;20204;-81
2023/12/23 06:51:43;;;;;;;2.13;0.47;;;;;;;9.04;65.26;93080.44;5046778;28;20203;-80
2023/12/23 06:54:10;;;;;;;0.20;0.20;;;;;;;9.30;63.90;93070.91;5047534;28;20239;-84
2023/12/23 06:56:39;;;;;;;0.17;0.17;;;;;;;9.46;63.98;93079.72;5048214;28;20206;-83
2023/12/23 06:59:12;;;;;;;0.20;0.20;;;;;;;9.65;63.16;93098.59;5047695;28;20668;-83
2023/12/23 07:01:39;;;;;;;0.20;0.20;;;;;;;9.68;62.45;93060.03;5046525;28;20204;-82
2023/12/23 07:04:07;;;;;;;10.40;0.82;;;;;;;9.67;62.18;93063.88;5047600;28;20227;-81
2023/12/23 07:06:35;;;;;;;0.20;0.20;;;;;;;9.68;62.38;93060.03;5042717;28;20802;-84
2023/12/23 07:09:04;;;;;;;0.30;0.30;;;;;;;9.87;62.24;93057.25;5047828;28;20291;-82
2023/12/23 07:11:31;;;;;;;0.20;0.20;;;;;;;9.89;61.86;93084.72;5046095;28;20208;-81
2023/12/23 07:14:00;;;;;;;0.22;0.22;;;;;;;10.02;61.52;93073.72;5045085;28;20196;-82
2023/12/23 07:16:27;;;;;;;0.10;0.10;;;;;;;9.95;61.75;93096.03;5050927;28;20219;-81
2023/12/23 07:18:54;;;;;;;0.20;0.20;;;;;;;10.02;61.45;93111.59;5047210;28;20223;-80
2023/12/23 07:21:21;;;;;;;0.20;0.20;;;;;;;10.03;61.62;93096.94;5049455;28;20204;-79
2023/12/23 07:23:51;;;;;;;0.20;0.20;;;;;;;9.92;61.31;93043.44;5051551;28;20195;-81
2023/12/23 07:26:18;;;;;;;0.30;0.30;;;;;;;9.97;61.26;93077.53;5052226;28;20226;-81
2023/12/23 07:28:45;;;;;;;0.47;0.47;;;;;;;10.08;61.57;93078.50;5049266;28;20215;-80
2023/12/23 07:31:15;;;;;;;0.20;0.20;;;;;;;10.16;60.91;93101.00;5050330;28;20285;-81
2023/12/23 07:33:42;;;;;;;0.30;0.30;;;;;;;10.16;61.06;93109.91;5051309;28;20203;-80
2023/12/23 07:36:09;;;;;;;0.20;0.20;;;;;;;10.15;61.55;93094.03;5045970;28;20232;-81
2023/12/23 07:38:39;;;;;;;0.20;0.20;;;;;;;10.19;60.99;93101.09;5046027;28;20235;-80
2023/12/23 07:41:07;;;;;;;0.30;0.30;;;;;;;10.27;61.52;93108.19;5052982;28;20222;-80
2023/12/23 07:43:34;;;;;;;0.30;0.30;;;;;;;10.30;61.09;93122.91;5051136;28;20210;-80
2023/12/23 07:46:01;;;;;;;0.25;0.25;;;;;;;10.28;61.07;93119.78;5053205;28;20310;-78
2023/12/23 07:48:29;;;;;;;0.20;0.20;;;;;;;10.31;61.19;93125.25;5051727;28;20269;-83
2023/12/23 07:50:57;;;;;;;0.20;0.20;;;;;;;10.31;61.34;93097.41;5046827;28;20206;-81
2023/12/23 07:53:24;;;;;;;0.47;0.45;;;;;;;10.38;61.20;93102.97;5049452;28;20210;-83
2023/12/23 07:55:51;;;;;;;0.13;0.13;;;;;;;10.34;61.42;93118.34;5052125;28;20200;-82
2023/12/23 07:58:18;;;;;;;0.20;0.20;;;;;;;10.40;61.69;93119.59;5054748;28;20583;-82
2023/12/23 08:00:45;;;;;;;0.20;0.20;;;;;;;10.51;60.95;93123.28;5055522;28;20241;-81
2023/12/23 08:03:13;;;;;;;0.22;0.22;;;;;;;10.64;60.45;93131.97;5052106;28;20215;-82
2023/12/23 08:05:41;;;;;;;0.20;0.20;;;;;;;10.64;60.75;93159.03;5053070;28;20212;-82
2023/12/23 08:08:10;;;;;;;0.20;0.20;;;;;;;10.56;60.84;93174.38;5052931;28;20207;-82
2023/12/23 08:10:38;;;;;;;0.20;0.20;;;;;;;10.42;61.35;93174.16;5035368;28;20683;-81
2023/12/23 08:13:05;;;;;;;0.43;0.43;;;;;;;10.48;61.11;93166.53;5053931;28;20260;-80
2023/12/23 08:15:32;;;;;;;0.20;0.20;;;;;;;10.41;61.22;93194.25;5052927;28;20227;-80
2023/12/23 08:17:59;;;;;;;0.20;0.20;;;;;;;10.48;61.64;93183.53;5056072;28;20238;-81
2023/12/23 08:20:25;;;;;;;0.20;0.20;;;;;;;10.82;61.36;93178.25;5054840;28;20211;-82
2023/12/23 08:22:54;;;;;;;0.30;0.30;;;;;;;10.93;60.70;93181.94;5056271;28;20642;-82
2023/12/23 08:25:21;;;;;;;0.43;0.43;;;;;;;11.02;60.52;93190.56;5058009;28;20216;-81
2023/12/23 08:27:48;;;;;;;0.30;0.30;;;;;;;11.15;59.75;93204.69;5059016;28;20646;-81
2023/12/23 08:30:15;;;;;;;0.22;0.22;;;;;;;11.22;59.66;93194.69;5057276;28;20691;-80
2023/12/23 08:32:43;;;;;;;0.20;0.20;;;;;;;11.44;59.68;93186.88;5058483;28;20219;-81
2023/12/23 08:35:09;;;;;;;0.90;0.40;;;;;;;11.53;59.07;93225.31;5060431;28;20211;-82
2023/12/23 08:37:37;;;;;;;0.20;0.20;;;;;;;11.52;59.48;93223.75;5061026;28;20340;-80
2023/12/23 08:40:06;;;;;;;0.20;0.20;;;;;;;11.44;60.13;93287.19;5058824;28;20540;-81
2023/12/23 08:42:33;;;;;;;0.45;0.45;;;;;;;11.01;60.43;93289.25;5056856;28;20281;-82
2023/12/23 08:45:00;;;;;;;0.52;0.43;;;;;;;10.72;62.63;93289.91;5057009;28;20311;-80
2023/12/23 08:47:27;;;;;;;0.20;0.20;;;;;;;10.58;63.64;93306.69;5057750;28;20211;-80
2023/12/23 08:49:54;;;;;;;0.20;0.20;;;;;;;10.33;63.68;93314.34;5055559;28;20207;-81
2023/12/23 08:52:21;;;;;;;0.35;0.35;;;;;;;10.41;64.12;93318.75;5056950;28;20211;-81
2023/12/23 08:54:48;;;;;;;1.40;0.60;;;;;;;10.35;63.63;93344.56;5055800;28;20648;-80
2023/12/23 08:57:17;;;;;;;0.50;0.50;;;;;;;10.14;65.09;93342.16;5057748;28;20208;-83
2023/12/23 08:59:43;;;;;;;0.93;0.40;;;;;;;8.97;70.74;93358.47;5055025;28;20204;-82
2023/12/23 09:02:10;;;;;;;0.30;0.30;;;;;;;8.68;72.54;93378.56;5057901;28;20543;-80
2023/12/23 09:04:37;;;;;;;0.52;0.52;;;;;;;8.21;74.96;93373.78;5049589;28;20204;-81
2023/12/23 09:07:04;;;;;;;0.40;0.40;;;;;;;8.02;77.39;93405.22;5054090;28;20200;-80
2023/12/23 09:09:32;;;;;;;0.50;0.50;;;;;;;7.69;79.70;93406.16;5053829;28;20214;-83
2023/12/23 09:12:00;;;;;;;0.68;0.68;;;;;;;7.54;82.18;93393.38;5053607;28;20548;-81
2023/12/23 09:14:29;;;;;;;0.50;0.50;;;;;;;7.59;84.17;93392.38;5053367;28;20616;-79
2023/12/23 09:16:56;;;;;;;1.23;0.98;;;;;;;7.48;84.73;93410.91;5035461;28;20642;-78
2023/12/23 09:19:23;;;;;;;1.38;1.17;;;;;;;7.37;85.49;93409.81;5052702;28;20235;-81
2023/12/23 09:21:51;;;;;;;0.30;0.30;;;;;;;7.44;85.68;93420.78;5053465;28;20203;-79
2023/12/23 09:24:18;;;;;;;0.70;0.63;;;;;;;7.45;85.03;93412.38;5053729;28;20245;-79
2023/12/23 09:26:45;;;;;;;2.60;1.67;;;;;;;7.21;85.00;93407.00;5052786;28;20660;-76
2023/12/23 09:29:12;;;;;;;0.50;0.50;;;;;;;7.20;85.61;93447.72;5052852;28;20226;-80
2023/12/23 09:31:40;;;;;;;1.10;0.57;;;;;;;7.07;85.72;93469.25;5052427;28;20278;-82
2023/12/23 09:34:07;;;;;;;2.33;0.93;;;;;;;7.01;85.47;93440.94;5052157;28;20227;-80
2023/12/23 09:36:33;;;;;;;5.43;4.20;;;;;;;7.02;85.45;93457.91;5052641;28;20627;-80
2023/12/23 09:39:00;;;;;;;0.20;0.20;;;;;;;7.09;85.36;93456.25;5051446;28;20242;-81
2023/12/23 09:41:27;;;;;;;0.20;0.20;;;;;;;7.12;85.36;93455.53;5052217;28;20208;-83
2023/12/23 09:43:54;;;;;;;1.20;0.52;;;;;;;6.97;85.47;93461.56;5035467;28;20219;-81
2023/12/23 09:46:21;;;;;;;0.77;0.35;;;;;;;6.87;86.06;93477.38;5054075;28;20207;-80
2023/12/23 09:48:50;;;;;;;0.40;0.40;;;;;;;6.73;87.07;93523.41;5050218;28;20207;-78
2023/12/23 09:51:18;;;;;;;0.40;0.40;;;;;;;6.50;88.51;93516.81;5051428;28;20570;-79
2023/12/23 09:53:47;;;;;;;1.58;0.93;;;;;;;6.15;91.33;93535.88;5051697;28;20298;-81
2023/12/23 09:56:16;;;;;;;4.20;0.93;;;;;;;5.85;94.58;93528.94;5051520;28;20545;-79
2023/12/23 09:58:45;;;;;;;0.30;0.30;;;;;;;5.69;97.90;93534.84;5051748;28;20677;-79
2023/12/23 10:01:12;;;;;;;0.30;0.30;;;;;;;5.63;99.61;93532.66;5047987;28;20210;-79
2023/12/23 10:03:38;;;;;;;0.45;0.45;;;;;;;5.40;100.00;93574.31;5050539;28;20408;-80
2023/12/23 10:06:13;;;;;;;0.30;0.30;;;;;;;5.28;100.00;93580.34;5051348;28;20215;-81
2023/12/23 10:08:40;;;;;;;2.65;1.00;;;;;;;5.17;100.00;93563.00;5051572;28;20261;-81
2023/12/23 10:13:53;;;;;;;0.35;0.32;;;;;;;5.26;100.00;93577.19;5049431;28;20208;-79
2023/12/23 10:16:22;;;;;;;0.30;0.30;;;;;;;5.28;100.00;93591.09;5051528;28;20216;-79
2023/12/23 10:18:49;;;;;;;0.30;0.30;;;;;;;5.32;100.00;93635.78;5033085;28;20228;-78
2023/12/23 10:21:19;;;;;;;0.52;0.43;;;;;;;5.15;100.00;93624.25;5051073;28;20272;-79
2023/12/23 10:23:47;;;;;;;0.20;0.20;;;;;;;5.08;100.00;93615.88;5051282;28;20606;-76
2023/12/23 10:26:15;;;;;;;0.30;0.30;;;;;;;5.12;100.00;93652.53;5050632;28;20208;-75
2023/12/23 10:28:44;;;;;;;0.20;0.20;;;;;;;5.19;100.00;93636.75;5050323;28;20624;-79
2023/12/23 10:31:13;;;;;;;0.30;0.30;;;;;;;5.27;100.00;93654.72;5050534;28;20232;-77
2023/12/23 10:33:45;;;;;;;0.85;0.80;;;;;;;5.24;100.00;93641.94;5050694;28;20212;-78
2023/12/23 10:36:21;;;;;;;0.30;0.30;;;;;;;5.41;100.00;93638.44;5050356;28;20214;-77
2023/12/23 10:38:54;;;;;;;0.20;0.20;;;;;;;5.50;100.00;93655.31;5051241;28;20692;-79
2023/12/23 10:41:32;;;;;;;0.20;0.20;;;;;;;5.56;99.46;93662.09;5051876;28;20234;-78
2023/12/23 10:44:01;;;;;;;0.30;0.30;;;;;;;5.37;98.96;93661.66;5050822;28;20555;-78
2023/12/23 10:46:30;;;;;;;0.20;0.20;;;;;;;5.21;99.69;93677.47;5051117;28;20215;-76
2023/12/23 10:48:58;;;;;;;0.20;0.20;;;;;;;5.21;99.97;93673.97;5051038;28;20218;-77
2023/12/23 10:51:30;;;;;;;0.22;0.22;;;;;;;5.10;99.97;93686.16;5050226;28;20269;-79
2023/12/23 10:54:03;;;;;;;0.20;0.20;;;;;;;5.12;100.00;93694.69;5051570;28;20203;-79
2023/12/23 10:56:31;;;;;;;0.20;0.20;;;;;;;5.08;100.00;93677.63;5051603;28;20212;-79
2023/12/23 10:58:58;;;;;;;0.20;0.20;;;;;;;5.22;100.00;93667.50;5050939;28;20238;-78
2023/12/23 11:01:29;;;;;;;0.20;0.20;;;;;;;5.18;100.00;93680.00;5051428;28;20219;-76
2023/12/23 11:04:00;;;;;;;0.20;0.20;;;;;;;5.28;100.00;93687.72;5047163;28;20203;-80
2023/12/23 11:06:33;;;;;;;0.32;0.32;;;;;;;5.41;100.00;93685.97;5050766;28;20245;-77
2023/12/23 11:09:02;;;;;;;0.35;0.35;;;;;;;5.35;100.00;93671.91;5050505;28;20203;-76
2023/12/23 11:11:31;;;;;;;0.20;0.20;;;;;;;5.45;100.00;93670.81;5051168;28;20210;-75
2023/12/23 11:14:04;;;;;;;0.20;0.20;;;;;;;5.60;100.00;93663.00;5053790;28;20203;-80
2023/12/23 11:16:31;;;;;;;0.20;0.20;;;;;;;5.63;99.79;93654.31;5051640;28;20203;-76
2023/12/23 11:18:58;;;;;;;1.45;0.40;;;;;;;5.83;97.30;93665.50;5051630;28;20288;-77
2023/12/23 11:21:25;;;;;;;0.20;0.20;;;;;;;6.18;96.91;93672.34;5054557;28;20253;-78
2023/12/23 11:24:02;;;;;;;0.20;0.20;;;;;;;6.20;95.33;93659.38;5051345;28;20230;-78
2023/12/23 11:26:42;;;;;;;0.30;0.30;;;;;;;6.11;94.03;93645.19;5038892;28;20298;-74
2023/12/23 11:29:22;;;;;;;0.52;0.52;;;;;;;6.13;91.71;93653.72;5056002;28;20613;-77
2023/12/23 11:31:51;;;;;;;0.20;0.20;;;;;;;6.14;92.64;93649.13;5052914;28;20250;-77
2023/12/23 11:34:23;;;;;;;0.20;0.20;;;;;;;6.18;91.60;93647.34;5053450;28;20306;-77
2023/12/23 11:36:51;;;;;;;0.20;0.20;;;;;;;6.12;91.89;93652.13;5052415;28;20257;-81
2023/12/23 11:39:19;;;;;;;0.30;0.30;;;;;;;6.11;91.37;93647.88;5051335;28;20228;-81
2023/12/23 11:41:50;;;;;;;0.45;0.45;;;;;;;5.95;91.60;93652.22;5050866;28;20223;-76
2023/12/23 11:44:17;;;;;;;0.20;0.20;;;;;;;5.97;91.81;93644.63;5051179;28;20219;-79